Terminal Aerodrome Forecast
Issued by NWS

Home | Current Version | Previous Version | Text Only | Print | Product List | Glossary On
Versions: 1 2 3 4 5 6 7 8 9 10 11 12 13 14 15 16 17 18 19 20 21 22 23 24 25 26 27 28 29 30 31 32 33 34 35 36
000
FTUS45 KBOU 230528
TAFBJC
TAF
KBJC 230528Z 2306/2406 25006KT P6SM FEW150 BKN220
     FM231100 VRB04KT P6SM SCT220
     FM231600 08005KT P6SM FEW150 SCT200
     FM231900 12007KT P6SM FEW100 SCT200
     FM240100 15009KT P6SM SCT100 SCT220
     FM240300 24005KT P6SM FEW120 SCT200=

USA.gov is the U.S. government's official web portal to all federal, state and local government web resources and services.